Time;durP1;ratioP1;P1;durP2;ratioP2;P2;SDS_P1;SDS_P2;PMS_P1;PMS_P2;Temp;Humidity;BMP_temperature;BMP_pressure;BME280_temperature;BME280_humidity;BME280_pressure;Samples;Min_cycle;Max_cycle;Signal;HPM_P1;HPM_P2
2021/07/21 00:01:40;;;;;;;12.40;10.00;;;;;;;;;;5079127;28;20442;-73
2021/07/21 00:04:06;;;;;;;13.43;9.87;;;;;;;;;;5079191;28;20441;-73
2021/07/21 00:06:32;;;;;;;13.30;9.67;;;;;;;;;;5076698;28;20515;-73
2021/07/21 00:08:58;;;;;;;13.47;10.77;;;;;;;;;;5089012;28;20409;-74
2021/07/21 00:14:19;;;;;;;13.37;10.33;;;;;;;;;;5076205;28;20900;-72
2021/07/21 00:16:52;;;;;;;9.83;8.50;;;;;;;;;;5049456;28;20494;-74
2021/07/21 00:22:03;;;;;;;10.60;9.00;;;;;;;;;;5084826;28;20572;-73
2021/07/21 00:24:29;;;;;;;10.77;9.07;;;;;;;;;;5083006;28;20411;-73
2021/07/21 00:26:55;;;;;;;11.67;9.80;;;;;;;;;;5069275;28;20410;-70
2021/07/21 00:29:21;;;;;;;12.57;9.47;;;;;;;;;;5069224;28;20402;-72
2021/07/21 00:31:47;;;;;;;13.07;10.13;;;;;;;;;;5069455;28;20437;-72
2021/07/21 00:34:13;;;;;;;12.23;9.70;;;;;;;;;;5083213;28;20587;-73
2021/07/21 00:36:39;;;;;;;13.90;10.67;;;;;;;;;;5071980;28;20834;-71
2021/07/21 00:39:05;;;;;;;15.87;9.97;;;;;;;;;;5082669;28;20473;-73
2021/07/21 00:41:31;;;;;;;13.73;9.30;;;;;;;;;;5075566;28;21014;-73
2021/07/21 00:43:57;;;;;;;13.43;10.50;;;;;;;;;;5072623;28;20502;-73
2021/07/21 00:46:23;;;;;;;11.47;9.47;;;;;;;;;;5076006;28;20521;-72
2021/07/21 00:48:49;;;;;;;13.30;9.70;;;;;;;;;;5072587;28;20421;-73
2021/07/21 00:51:17;;;;;;;11.40;9.27;;;;;;;;;;5072656;28;20435;-72
2021/07/21 00:53:44;;;;;;;12.20;9.20;;;;;;;;;;5077089;28;20418;-71
2021/07/21 00:56:10;;;;;;;12.30;10.00;;;;;;;;;;5075751;28;20414;-72
2021/07/21 00:58:36;;;;;;;12.03;9.40;;;;;;;;;;5076081;28;20488;-70
2021/07/21 01:01:02;;;;;;;12.77;10.77;;;;;;;;;;5078336;28;20483;-73
2021/07/21 01:03:28;;;;;;;12.00;10.10;;;;;;;;;;5088002;28;20406;-74
2021/07/21 01:05:54;;;;;;;14.10;9.90;;;;;;;;;;5086637;28;20905;-72
2021/07/21 01:08:21;;;;;;;16.27;10.63;;;;;;;;;;5084308;28;20414;-73
2021/07/21 01:11:02;;;;;;;13.43;10.50;;;;;;;;;;5075880;28;20501;-71
2021/07/21 01:13:35;;;;;;;15.77;11.40;;;;;;;;;;5076368;28;20411;-72
2021/07/21 01:16:07;;;;;;;15.83;10.47;;;;;;;;;;5076196;28;20403;-70
2021/07/21 01:18:38;;;;;;;15.60;11.87;;;;;;;;;;5068611;28;20461;-71
2021/07/21 01:21:22;;;;;;;12.50;10.67;;;;;;;;;;5076184;28;20416;-73
2021/07/21 01:23:48;;;;;;;15.30;11.90;;;;;;;;;;5083422;28;20402;-73
2021/07/21 01:26:21;;;;;;;15.83;11.90;;;;;;;;;;5079589;28;20418;-72
2021/07/21 01:29:00;;;;;;;;;;;;;;;;;;;;;
2021/07/21 01:31:38;;;;;;;15.03;11.73;;;;;;;;;;5073661;28;20950;-73
2021/07/21 01:34:07;;;;;;;13.43;10.80;;;;;;;;;;5072158;28;20432;-73
2021/07/21 01:36:34;;;;;;;16.90;11.80;;;;;;;;;;5076777;28;20497;-73
2021/07/21 01:39:03;;;;;;;15.70;12.20;;;;;;;;;;5087444;28;20457;-71
2021/07/21 01:41:31;;;;;;;15.90;11.97;;;;;;;;;;5075500;28;20461;-71
2021/07/21 01:44:02;;;;;;;15.50;12.03;;;;;;;;;;5083955;28;20410;-72
2021/07/21 01:46:29;;;;;;;22.47;11.93;;;;;;;;;;5079048;28;20445;-74
2021/07/21 01:48:56;;;;;;;18.50;13.30;;;;;;;;;;5088158;28;20409;-71
2021/07/21 01:51:25;;;;;;;18.33;12.70;;;;;;;;;;5079475;28;20431;-69
2021/07/21 01:53:52;;;;;;;15.90;12.20;;;;;;;;;;5089007;28;20775;-73
2021/07/21 01:56:19;;;;;;;17.07;12.33;;;;;;;;;;5075077;28;20907;-72
2021/07/21 01:58:46;;;;;;;18.77;13.50;;;;;;;;;;5084199;28;20548;-74
2021/07/21 02:01:13;;;;;;;16.93;12.87;;;;;;;;;;5085952;28;20406;-73
2021/07/21 02:03:43;;;;;;;17.67;12.77;;;;;;;;;;5081193;28;20500;-71
2021/07/21 02:06:09;;;;;;;15.50;12.50;;;;;;;;;;5083711;28;20803;-71
2021/07/21 02:08:36;;;;;;;19.60;13.47;;;;;;;;;;5080969;28;20790;-73
2021/07/21 02:11:02;;;;;;;22.50;12.20;;;;;;;;;;5091225;28;20863;-73
2021/07/21 02:13:29;;;;;;;17.70;13.20;;;;;;;;;;5075035;28;20407;-70
2021/07/21 02:15:55;;;;;;;18.53;12.97;;;;;;;;;;5079157;28;20419;-70
2021/07/21 02:18:22;;;;;;;16.83;12.10;;;;;;;;;;5074594;28;20811;-73
2021/07/21 02:20:48;;;;;;;15.80;12.63;;;;;;;;;;5074693;28;20422;-72
2021/07/21 02:23:15;;;;;;;19.37;13.57;;;;;;;;;;5074655;28;20437;-73
2021/07/21 02:25:41;;;;;;;15.73;12.93;;;;;;;;;;5074524;28;20407;-74
2021/07/21 02:28:07;;;;;;;17.30;12.27;;;;;;;;;;5074165;28;20410;-73
2021/07/21 02:30:35;;;;;;;19.70;12.97;;;;;;;;;;5074379;28;20447;-71
2021/07/21 02:33:19;;;;;;;19.77;12.40;;;;;;;;;;5074479;28;20442;-72
2021/07/21 02:35:45;;;;;;;17.83;12.80;;;;;;;;;;5080458;28;20413;-71
2021/07/21 02:38:13;;;;;;;18.33;12.30;;;;;;;;;;5083510;28;20457;-72
2021/07/21 02:40:39;;;;;;;17.97;12.20;;;;;;;;;;5074301;28;20421;-73
2021/07/21 02:43:05;;;;;;;18.10;13.17;;;;;;;;;;5074383;28;20521;-74
2021/07/21 02:45:31;;;;;;;16.03;12.60;;;;;;;;;;5074121;28;20764;-72
2021/07/21 02:47:57;;;;;;;16.57;12.83;;;;;;;;;;5069254;28;20452;-72
2021/07/21 02:50:23;;;;;;;17.80;12.43;;;;;;;;;;5074291;28;20423;-74
2021/07/21 02:53:09;;;;;;;14.13;11.37;;;;;;;;;;5074386;28;20431;-72
2021/07/21 02:55:39;;;;;;;15.40;10.73;;;;;;;;;;5083198;28;20418;-71
2021/07/21 02:58:23;;;;;;;16.40;11.50;;;;;;;;;;5073601;28;20993;-72
2021/07/21 03:00:50;;;;;;;13.80;11.57;;;;;;;;;;5073774;28;20407;-73
2021/07/21 03:03:17;;;;;;;14.40;11.03;;;;;;;;;;5073945;28;20441;-73
2021/07/21 03:05:45;;;;;;;15.30;11.70;;;;;;;;;;5073654;28;20426;-71
2021/07/21 03:08:11;;;;;;;13.40;10.30;;;;;;;;;;5077190;28;20414;-75
2021/07/21 03:10:39;;;;;;;14.00;10.90;;;;;;;;;;5077647;28;20467;-72
2021/07/21 03:13:07;;;;;;;15.80;11.63;;;;;;;;;;5073819;28;20434;-72
2021/07/21 03:15:35;;;;;;;14.33;11.20;;;;;;;;;;5083896;28;20427;-73
2021/07/21 03:18:02;;;;;;;15.00;11.13;;;;;;;;;;5079377;28;20546;-72
2021/07/21 03:20:29;;;;;;;13.57;10.53;;;;;;;;;;5079155;28;20422;-73
2021/07/21 03:22:56;;;;;;;14.63;10.97;;;;;;;;;;5073714;28;20517;-74
2021/07/21 03:25:23;;;;;;;11.50;10.30;;;;;;;;;;5073717;28;20747;-70
2021/07/21 03:27:51;;;;;;;13.63;10.73;;;;;;;;;;5073220;28;20942;-73
2021/07/21 03:30:17;;;;;;;12.37;10.47;;;;;;;;;;5075044;28;20426;-73
2021/07/21 03:32:44;;;;;;;12.20;10.13;;;;;;;;;;5085565;28;20430;-74
2021/07/21 03:35:11;;;;;;;14.30;9.90;;;;;;;;;;5077132;28;20500;-72
2021/07/21 03:37:39;;;;;;;13.37;10.10;;;;;;;;;;5072812;28;20469;-75
2021/07/21 03:40:06;;;;;;;15.33;11.37;;;;;;;;;;5073481;28;20763;-75
2021/07/21 03:42:34;;;;;;;14.87;10.90;;;;;;;;;;5076924;28;20760;-72
2021/07/21 03:45:02;;;;;;;13.37;10.63;;;;;;;;;;5075661;28;20411;-73
2021/07/21 03:47:28;;;;;;;12.10;10.00;;;;;;;;;;5069251;28;20430;-71
2021/07/21 03:49:55;;;;;;;15.27;11.00;;;;;;;;;;5073246;28;20414;-71
2021/07/21 03:52:23;;;;;;;11.80;9.70;;;;;;;;;;5073137;28;20442;-71
2021/07/21 03:54:49;;;;;;;12.83;9.83;;;;;;;;;;5073344;28;20415;-71
2021/07/21 03:57:17;;;;;;;13.40;10.97;;;;;;;;;;5072670;28;20490;-75
2021/07/21 03:59:43;;;;;;;15.83;11.00;;;;;;;;;;5073679;28;20552;-73
2021/07/21 04:02:10;;;;;;;13.90;10.90;;;;;;;;;;5072943;28;20941;-72
2021/07/21 04:04:40;;;;;;;14.70;10.83;;;;;;;;;;5073029;28;20435;-73
2021/07/21 04:07:07;;;;;;;15.13;11.23;;;;;;;;;;5072867;28;20419;-73
2021/07/21 04:09:34;;;;;;;15.10;10.80;;;;;;;;;;5072943;28;20411;-71
2021/07/21 04:12:01;;;;;;;15.43;11.60;;;;;;;;;;5072961;28;20440;-73
2021/07/21 04:14:28;;;;;;;13.47;10.43;;;;;;;;;;5073095;28;20489;-71
2021/07/21 04:16:55;;;;;;;14.30;12.10;;;;;;;;;;5072561;28;20433;-75
2021/07/21 04:19:21;;;;;;;19.47;12.63;;;;;;;;;;5072909;28;20794;-74
2021/07/21 04:21:48;;;;;;;17.93;12.23;;;;;;;;;;5072865;28;20485;-71
2021/07/21 04:24:15;;;;;;;12.70;11.37;;;;;;;;;;5072984;28;20444;-73
2021/07/21 04:26:41;;;;;;;14.20;11.13;;;;;;;;;;5072504;28;20513;-73
2021/07/21 04:29:10;;;;;;;19.20;15.17;;;;;;;;;;5077858;28;20425;-72
2021/07/21 04:31:37;;;;;;;16.73;13.30;;;;;;;;;;5076768;28;20559;-71
2021/07/21 04:34:04;;;;;;;13.83;11.60;;;;;;;;;;5086295;28;20411;-71
2021/07/21 04:36:30;;;;;;;16.20;12.10;;;;;;;;;;5076810;28;20418;-73
2021/07/21 04:38:56;;;;;;;17.60;12.27;;;;;;;;;;5076536;28;20466;-74
2021/07/21 04:41:23;;;;;;;16.97;12.00;;;;;;;;;;5076591;28;20957;-73
2021/07/21 04:43:50;;;;;;;15.90;12.80;;;;;;;;;;5076536;28;20442;-76
2021/07/21 04:46:17;;;;;;;15.10;11.83;;;;;;;;;;5074567;28;20520;-73
2021/07/21 04:48:44;;;;;;;13.80;11.90;;;;;;;;;;5076583;28;20898;-74
2021/07/21 04:51:10;;;;;;;17.33;13.50;;;;;;;;;;5076496;28;20475;-73
2021/07/21 04:53:37;;;;;;;17.50;13.67;;;;;;;;;;5079684;28;20496;-74
2021/07/21 04:56:03;;;;;;;16.57;13.30;;;;;;;;;;5092820;28;20421;-74
2021/07/21 04:58:29;;;;;;;16.00;12.33;;;;;;;;;;5089914;28;21028;-73
2021/07/21 05:00:56;;;;;;;18.30;13.00;;;;;;;;;;5085809;28;20445;-74
2021/07/21 05:03:22;;;;;;;18.00;12.67;;;;;;;;;;5079796;28;20407;-74
2021/07/21 05:05:48;;;;;;;14.90;12.53;;;;;;;;;;5076266;28;20941;-73
2021/07/21 05:08:14;;;;;;;17.20;14.40;;;;;;;;;;5075803;28;20502;-71
2021/07/21 05:10:43;;;;;;;17.20;13.37;;;;;;;;;;5086680;28;20413;-71
2021/07/21 05:13:09;;;;;;;16.57;12.97;;;;;;;;;;5075835;28;20483;-73
2021/07/21 05:15:35;;;;;;;17.23;13.20;;;;;;;;;;5076132;28;20418;-73
2021/07/21 05:18:01;;;;;;;16.60;12.73;;;;;;;;;;5080223;28;20492;-74
2021/07/21 05:20:27;;;;;;;15.93;11.80;;;;;;;;;;5082078;28;20413;-75
2021/07/21 05:22:53;;;;;;;17.70;13.80;;;;;;;;;;5075679;28;20798;-75
2021/07/21 05:25:19;;;;;;;18.53;13.30;;;;;;;;;;5075906;28;20419;-72
2021/07/21 05:27:45;;;;;;;19.43;13.77;;;;;;;;;;5075416;28;20417;-72
2021/07/21 05:30:14;;;;;;;17.70;12.57;;;;;;;;;;5076490;28;20442;-72
2021/07/21 05:32:40;;;;;;;16.83;12.07;;;;;;;;;;5082179;28;20432;-72
2021/07/21 05:35:07;;;;;;;17.00;13.10;;;;;;;;;;5081223;28;20415;-74
2021/07/21 05:37:33;;;;;;;16.07;12.80;;;;;;;;;;5075501;28;20846;-74
2021/07/21 05:39:59;;;;;;;17.20;12.97;;;;;;;;;;5075629;28;20440;-74
2021/07/21 05:42:25;;;;;;;16.90;12.97;;;;;;;;;;5088475;28;20430;-73
2021/07/21 05:44:51;;;;;;;17.67;12.93;;;;;;;;;;5075422;28;20447;-73
2021/07/21 05:47:17;;;;;;;19.70;13.30;;;;;;;;;;5076898;28;20838;-74
2021/07/21 05:49:43;;;;;;;19.77;12.70;;;;;;;;;;5075591;28;20457;-72
2021/07/21 05:52:10;;;;;;;17.53;13.23;;;;;;;;;;5075315;28;20437;-72
2021/07/21 05:54:40;;;;;;;21.50;12.67;;;;;;;;;;5075462;28;20512;-73
2021/07/21 05:57:07;;;;;;;19.00;12.70;;;;;;;;;;5073787;28;20448;-73
2021/07/21 05:59:33;;;;;;;18.60;13.40;;;;;;;;;;5075375;28;20922;-73
2021/07/21 06:01:59;;;;;;;16.77;12.30;;;;;;;;;;5075150;28;20426;-72
2021/07/21 06:04:25;;;;;;;17.23;12.80;;;;;;;;;;5075330;28;20403;-73
2021/07/21 06:06:51;;;;;;;17.60;13.67;;;;;;;;;;5074880;28;20748;-74
2021/07/21 06:09:17;;;;;;;17.77;13.30;;;;;;;;;;5075056;28;20409;-74
2021/07/21 06:11:43;;;;;;;19.10;12.13;;;;;;;;;;5074966;28;20426;-73
2021/07/21 06:14:10;;;;;;;14.63;12.20;;;;;;;;;;5074827;28;20422;-73
2021/07/21 06:16:36;;;;;;;16.93;12.23;;;;;;;;;;5074307;28;20425;-73
2021/07/21 06:19:03;;;;;;;16.83;12.87;;;;;;;;;;5074373;28;20556;-73
2021/07/21 06:21:29;;;;;;;17.80;12.53;;;;;;;;;;5074602;28;20934;-73
2021/07/21 06:23:55;;;;;;;19.20;13.03;;;;;;;;;;5077769;28;20433;-76
2021/07/21 06:26:21;;;;;;;19.20;13.90;;;;;;;;;;5075755;28;20415;-73
2021/07/21 06:28:48;;;;;;;17.70;12.27;;;;;;;;;;5074211;28;20442;-71
2021/07/21 06:31:15;;;;;;;16.03;12.33;;;;;;;;;;5074234;28;20953;-71
2021/07/21 06:33:41;;;;;;;15.87;10.93;;;;;;;;;;5084365;28;20421;-73
2021/07/21 06:36:07;;;;;;;16.37;11.70;;;;;;;;;;5074430;28;20493;-72
2021/07/21 06:38:33;;;;;;;17.70;11.77;;;;;;;;;;5073623;28;20558;-73
2021/07/21 06:40:59;;;;;;;13.20;10.10;;;;;;;;;;5074190;28;20418;-72
2021/07/21 06:43:25;;;;;;;13.80;10.80;;;;;;;;;;5073964;28;20914;-70
2021/07/21 06:45:51;;;;;;;16.37;12.20;;;;;;;;;;5070261;28;20509;-71
2021/07/21 06:48:17;;;;;;;14.37;10.87;;;;;;;;;;5061893;28;20423;-72
2021/07/21 06:50:43;;;;;;;15.90;11.83;;;;;;;;;;5070517;28;20426;-71
2021/07/21 06:53:09;;;;;;;16.57;11.90;;;;;;;;;;5069231;28;20434;-75
2021/07/21 06:55:35;;;;;;;17.00;10.97;;;;;;;;;;5065984;28;20927;-72
2021/07/21 06:58:03;;;;;;;14.70;10.67;;;;;;;;;;5071442;28;20500;-75
2021/07/21 07:00:29;;;;;;;23.33;12.13;;;;;;;;;;5070265;28;21088;-73
2021/07/21 07:02:55;;;;;;;15.10;11.00;;;;;;;;;;5070140;28;20500;-71
2021/07/21 07:05:21;;;;;;;13.07;10.97;;;;;;;;;;5075005;28;20466;-73
2021/07/21 07:07:47;;;;;;;16.87;11.37;;;;;;;;;;5069693;28;20424;-73
2021/07/21 07:10:14;;;;;;;12.70;10.80;;;;;;;;;;5070068;28;20422;-74
2021/07/21 07:12:40;;;;;;;15.60;10.20;;;;;;;;;;5069706;28;21007;-74
2021/07/21 07:15:07;;;;;;;15.67;12.93;;;;;;;;;;5069713;28;20780;-73
2021/07/21 07:17:33;;;;;;;15.57;11.37;;;;;;;;;;5069476;28;20535;-74
2021/07/21 07:19:59;;;;;;;13.90;10.60;;;;;;;;;;5069935;28;20421;-71
2021/07/21 07:22:26;;;;;;;13.13;10.30;;;;;;;;;;5069751;28;20531;-72
2021/07/21 07:24:52;;;;;;;13.87;10.50;;;;;;;;;;5069818;28;20569;-74
2021/07/21 07:27:18;;;;;;;15.43;11.57;;;;;;;;;;5078988;28;20422;-74
2021/07/21 07:29:44;;;;;;;15.00;10.80;;;;;;;;;;5069425;28;20411;-73
2021/07/21 07:32:10;;;;;;;14.63;11.63;;;;;;;;;;5069754;28;20427;-74
2021/07/21 07:34:36;;;;;;;17.80;11.03;;;;;;;;;;5069542;28;20447;-73
2021/07/21 07:37:02;;;;;;;15.27;11.20;;;;;;;;;;5069332;28;20415;-75
2021/07/21 07:39:28;;;;;;;16.47;12.63;;;;;;;;;;5069790;28;20961;-73
2021/07/21 07:41:58;;;;;;;15.63;12.30;;;;;;;;;;5072036;28;20478;-73
2021/07/21 07:44:24;;;;;;;16.53;12.40;;;;;;;;;;5069599;28;20434;-74
2021/07/21 07:46:50;;;;;;;18.50;12.03;;;;;;;;;;5071138;28;20496;-73
2021/07/21 07:49:16;;;;;;;16.60;12.87;;;;;;;;;;5069474;28;20450;-75
2021/07/21 07:51:42;;;;;;;20.73;14.60;;;;;;;;;;5069372;28;20808;-75
2021/07/21 07:54:11;;;;;;;18.00;14.27;;;;;;;;;;5074329;28;20434;-76
2021/07/21 07:56:40;;;;;;;20.33;14.43;;;;;;;;;;5069073;28;20508;-72
2021/07/21 07:59:06;;;;;;;20.23;14.50;;;;;;;;;;5061893;28;20981;-75
2021/07/21 08:01:33;;;;;;;17.47;13.07;;;;;;;;;;5069170;28;20434;-73
2021/07/21 08:03:59;;;;;;;16.93;13.50;;;;;;;;;;5068951;28;20479;-73
2021/07/21 08:06:25;;;;;;;17.30;13.77;;;;;;;;;;5069337;28;20445;-69
2021/07/21 08:08:51;;;;;;;18.60;14.00;;;;;;;;;;5069069;28;20426;-75
2021/07/21 08:11:18;;;;;;;19.27;14.10;;;;;;;;;;5068995;28;20434;-70
2021/07/21 08:13:44;;;;;;;17.97;14.43;;;;;;;;;;5069150;28;20562;-70
2021/07/21 08:16:10;;;;;;;17.47;12.27;;;;;;;;;;5069069;28;20425;-72
2021/07/21 08:18:36;;;;;;;19.27;12.50;;;;;;;;;;5068557;28;20465;-71
2021/07/21 08:21:03;;;;;;;17.80;12.33;;;;;;;;;;5068772;28;20418;-74
2021/07/21 08:23:29;;;;;;;17.50;12.27;;;;;;;;;;5069018;28;20418;-73
2021/07/21 08:25:55;;;;;;;17.73;12.30;;;;;;;;;;5068718;28;20446;-73
2021/07/21 08:28:21;;;;;;;16.40;11.57;;;;;;;;;;5068172;28;20872;-69
2021/07/21 08:30:48;;;;;;;16.93;11.00;;;;;;;;;;5067487;28;21244;-73
2021/07/21 08:33:14;;;;;;;11.03;9.93;;;;;;;;;;5068910;28;20442;-72
2021/07/21 08:35:41;;;;;;;15.33;11.33;;;;;;;;;;5068788;28;20564;-71
2021/07/21 08:38:07;;;;;;;10.30;8.03;;;;;;;;;;5068454;28;20494;-72
2021/07/21 08:40:33;;;;;;;11.00;8.50;;;;;;;;;;5068465;28;21119;-72
2021/07/21 08:42:59;;;;;;;10.10;8.50;;;;;;;;;;5068997;28;20477;-74
2021/07/21 08:45:26;;;;;;;9.40;8.40;;;;;;;;;;5070300;28;20411;-72
2021/07/21 08:47:52;;;;;;;9.17;8.23;;;;;;;;;;5065113;28;20426;-71
2021/07/21 08:50:19;;;;;;;11.20;8.50;;;;;;;;;;5067527;28;20415;-75
2021/07/21 08:52:46;;;;;;;10.77;9.20;;;;;;;;;;5067375;28;20454;-70
2021/07/21 08:55:13;;;;;;;10.23;8.60;;;;;;;;;;5068562;28;20825;-75
2021/07/21 08:57:39;;;;;;;10.53;9.43;;;;;;;;;;5068197;28;20557;-73
2021/07/21 09:00:10;;;;;;;13.83;9.07;;;;;;;;;;5068340;28;20833;-73
2021/07/21 09:02:37;;;;;;;10.53;8.67;;;;;;;;;;5068840;28;20426;-73
2021/07/21 09:05:04;;;;;;;12.07;9.93;;;;;;;;;;5068516;28;20864;-75
2021/07/21 09:07:30;;;;;;;10.10;8.73;;;;;;;;;;5068211;28;20900;-75
2021/07/21 09:09:56;;;;;;;11.80;9.43;;;;;;;;;;5068270;28;20414;-73
2021/07/21 09:12:23;;;;;;;10.77;8.90;;;;;;;;;;5068335;28;20476;-74
2021/07/21 09:14:49;;;;;;;11.00;8.47;;;;;;;;;;5068436;28;20775;-71
2021/07/21 09:17:16;;;;;;;8.73;7.83;;;;;;;;;;5071068;28;20898;-72
2021/07/21 09:19:46;;;;;;;9.37;8.37;;;;;;;;;;5070656;28;20438;-72
2021/07/21 09:22:12;;;;;;;8.77;7.87;;;;;;;;;;5071751;28;20434;-73
2021/07/21 09:24:38;;;;;;;11.70;8.33;;;;;;;;;;5072076;28;20414;-75
2021/07/21 09:27:04;;;;;;;9.70;8.13;;;;;;;;;;5071738;28;20415;-74
2021/07/21 09:29:30;;;;;;;7.50;6.80;;;;;;;;;;5071855;28;20476;-73
2021/07/21 09:31:59;;;;;;;8.57;7.20;;;;;;;;;;5071753;28;20454;-75
2021/07/21 09:34:26;;;;;;;9.00;7.07;;;;;;;;;;5071887;28;20487;-73
2021/07/21 09:37:03;;;;;;;10.37;8.50;;;;;;;;;;5071119;28;20414;-74
2021/07/21 09:39:42;;;;;;;9.60;7.40;;;;;;;;;;5071761;28;20466;-74
2021/07/21 09:42:09;;;;;;;7.50;6.70;;;;;;;;;;5071348;28;20446;-77
2021/07/21 09:44:37;;;;;;;8.20;7.20;;;;;;;;;;5071597;28;20495;-74
2021/07/21 09:47:16;;;;;;;8.60;7.70;;;;;;;;;;5069494;28;20418;-76
2021/07/21 09:49:43;;;;;;;7.23;6.53;;;;;;;;;;5071664;28;20421;-72
2021/07/21 09:52:22;;;;;;;7.83;7.13;;;;;;;;;;5070454;28;20762;-72
2021/07/21 09:55:07;;;;;;;7.80;7.00;;;;;;;;;;5071263;28;20930;-71
2021/07/21 09:57:34;;;;;;;7.40;6.37;;;;;;;;;;5064400;28;20511;-76
2021/07/21 10:00:00;;;;;;;10.73;7.00;;;;;;;;;;5071229;28;20771;-76
2021/07/21 10:02:27;;;;;;;7.80;6.93;;;;;;;;;;5071435;28;20465;-72
2021/07/21 10:04:53;;;;;;;7.03;6.20;;;;;;;;;;5075194;28;20435;-73
2021/07/21 10:10:16;;;;;;;7.73;6.50;;;;;;;;;;5068354;28;20414;-74
2021/07/21 10:12:42;;;;;;;8.50;7.00;;;;;;;;;;5071689;28;20445;-72
2021/07/21 10:15:08;;;;;;;7.80;7.10;;;;;;;;;;5078170;28;20766;-73
2021/07/21 10:17:34;;;;;;;6.70;6.00;;;;;;;;;;5073176;28;20468;-76
2021/07/21 10:20:01;;;;;;;8.83;6.70;;;;;;;;;;5071310;28;20791;-72
2021/07/21 10:22:27;;;;;;;7.43;6.73;;;;;;;;;;5083468;28;20429;-74
2021/07/21 10:24:55;;;;;;;6.80;6.10;;;;;;;;;;5071591;28;20411;-73
2021/07/21 10:27:22;;;;;;;8.30;6.87;;;;;;;;;;5071149;28;20424;-75
2021/07/21 10:29:49;;;;;;;8.83;7.93;;;;;;;;;;5071102;28;20415;-73
2021/07/21 10:32:15;;;;;;;7.70;6.90;;;;;;;;;;5071374;28;20435;-75
2021/07/21 10:34:42;;;;;;;7.93;6.50;;;;;;;;;;5070562;28;20430;-73
2021/07/21 10:37:08;;;;;;;8.17;7.37;;;;;;;;;;5070821;28;20851;-75
2021/07/21 10:39:35;;;;;;;7.63;6.90;;;;;;;;;;5071033;28;21001;-71
2021/07/21 10:42:09;;;;;;;10.93;7.33;;;;;;;;;;5071107;28;20430;-74
2021/07/21 10:44:35;;;;;;;7.80;7.00;;;;;;;;;;5099791;28;20415;-71
2021/07/21 10:47:01;;;;;;;7.87;7.07;;;;;;;;;;5065889;28;20424;-75
2021/07/21 10:49:36;;;;;;;9.57;7.40;;;;;;;;;;5070758;28;20420;-73
2021/07/21 10:52:25;;;;;;;7.00;6.30;;;;;;;;;;5068536;28;20443;-73
2021/07/21 10:54:58;;;;;;;7.90;7.10;;;;;;;;;;5079122;28;20406;-73
2021/07/21 11:00:14;;;;;;;10.97;7.00;;;;;;;;;;5075468;28;20413;-73
2021/07/21 11:02:40;;;;;;;7.43;6.70;;;;;;;;;;5069914;28;20620;-72
2021/07/21 11:05:09;;;;;;;5.97;5.37;;;;;;;;;;5070000;28;20437;-71
2021/07/21 11:07:54;;;;;;;6.50;5.90;;;;;;;;;;5069552;28;20818;-72
2021/07/21 11:10:39;;;;;;;5.80;5.20;;;;;;;;;;5069897;28;20940;-70
2021/07/21 11:13:07;;;;;;;6.07;5.43;;;;;;;;;;5060450;28;20434;-73
2021/07/21 11:15:36;;;;;;;6.47;5.87;;;;;;;;;;5069713;28;20422;-72
2021/07/21 11:18:25;;;;;;;6.87;6.17;;;;;;;;;;5069319;28;20466;-71
2021/07/21 11:21:05;;;;;;;7.10;6.40;;;;;;;;;;5069527;28;20959;-71
2021/07/21 11:23:49;;;;;;;8.27;6.87;;;;;;;;;;5069738;28;20409;-70
2021/07/21 11:26:38;;;;;;;8.50;6.93;;;;;;;;;;5068060;28;20414;-72
2021/07/21 11:29:27;;;;;;;6.47;5.63;;;;;;;;;;5069391;28;20419;-72
2021/07/21 11:31:53;;;;;;;5.43;4.93;;;;;;;;;;5069124;28;20450;-74
2021/07/21 11:34:35;;;;;;;6.60;5.60;;;;;;;;;;5069598;28;20417;-72
2021/07/21 11:37:02;;;;;;;8.83;5.93;;;;;;;;;;5057116;28;20406;-71
2021/07/21 11:39:35;;;;;;;6.20;5.60;;;;;;;;;;5068888;28;20458;-73
2021/07/21 11:42:01;;;;;;;7.33;5.63;;;;;;;;;;5069111;28;20441;-74
2021/07/21 11:44:31;;;;;;;6.53;5.90;;;;;;;;;;5069179;28;20428;-72
2021/07/21 11:46:57;;;;;;;9.33;6.20;;;;;;;;;;5072275;28;20438;-71
2021/07/21 11:49:24;;;;;;;7.97;6.80;;;;;;;;;;5069397;28;20410;-72
2021/07/21 11:51:54;;;;;;;6.37;5.77;;;;;;;;;;5062809;28;20823;-71
2021/07/21 11:54:30;;;;;;;6.03;5.43;;;;;;;;;;5067777;28;20446;-70
2021/07/21 11:56:57;;;;;;;5.73;5.23;;;;;;;;;;5069404;28;20448;-69
2021/07/21 11:59:49;;;;;;;6.60;6.00;;;;;;;;;;5069459;28;20469;-73
2021/07/21 12:02:17;;;;;;;7.27;6.00;;;;;;;;;;5068604;28;20446;-72
2021/07/21 12:04:53;;;;;;;7.23;4.80;;;;;;;;;;5069044;28;20498;-73
2021/07/21 12:07:20;;;;;;;6.27;5.53;;;;;;;;;;5068977;28;20423;-72
2021/07/21 12:09:47;;;;;;;5.60;5.10;;;;;;;;;;5069430;28;20414;-69
2021/07/21 12:12:16;;;;;;;6.13;5.53;;;;;;;;;;5068832;28;20438;-72
2021/07/21 12:14:47;;;;;;;5.17;4.67;;;;;;;;;;5069115;28;20816;-73
2021/07/21 12:17:14;;;;;;;6.27;5.67;;;;;;;;;;5068654;28;20449;-69
2021/07/21 12:19:41;;;;;;;5.83;5.33;;;;;;;;;;5068998;28;20894;-72
2021/07/21 12:22:11;;;;;;;6.07;5.57;;;;;;;;;;5068841;28;20445;-73
2021/07/21 12:25:03;;;;;;;5.77;5.27;;;;;;;;;;5068920;28;20403;-72
2021/07/21 12:27:29;;;;;;;5.97;5.47;;;;;;;;;;5056559;28;20410;-71
2021/07/21 12:29:59;;;;;;;6.47;5.87;;;;;;;;;;5069927;28;20398;-71
2021/07/21 12:32:25;;;;;;;6.67;6.07;;;;;;;;;;5069170;28;20430;-70
2021/07/21 12:34:52;;;;;;;6.43;5.93;;;;;;;;;;5069660;28;20419;-73
2021/07/21 12:37:22;;;;;;;7.13;6.43;;;;;;;;;;5060923;28;20437;-72
2021/07/21 12:39:49;;;;;;;9.27;6.07;;;;;;;;;;5068720;28;20415;-72
2021/07/21 12:42:26;;;;;;;6.70;6.00;;;;;;;;;;5068564;28;20850;-69
2021/07/21 12:44:59;;;;;;;7.00;6.40;;;;;;;;;;5067816;28;20403;-72
2021/07/21 12:47:27;;;;;;;5.70;5.10;;;;;;;;;;5068470;28;20422;-73
2021/07/21 12:49:54;;;;;;;5.63;5.13;;;;;;;;;;5068526;28;20530;-74
2021/07/21 12:52:22;;;;;;;6.37;5.77;;;;;;;;;;5067340;28;20434;-70
2021/07/21 12:54:49;;;;;;;6.77;6.07;;;;;;;;;;5072482;28;20402;-73
2021/07/21 12:57:15;;;;;;;6.70;6.10;;;;;;;;;;5071970;28;20426;-72
2021/07/21 12:59:41;;;;;;;6.97;6.27;;;;;;;;;;5072393;28;20464;-73
2021/07/21 13:02:11;;;;;;;6.90;6.20;;;;;;;;;;5072915;28;20442;-71
2021/07/21 13:04:38;;;;;;;7.47;5.90;;;;;;;;;;5074847;28;20456;-71
2021/07/21 13:07:08;;;;;;;6.50;5.67;;;;;;;;;;5071853;28;20426;-74
2021/07/21 13:09:37;;;;;;;6.87;6.27;;;;;;;;;;5072372;28;20428;-74
2021/07/21 13:12:14;;;;;;;8.73;7.07;;;;;;;;;;5071987;28;20438;-71
2021/07/21 13:14:41;;;;;;;6.23;5.60;;;;;;;;;;5072130;28;20418;-74
2021/07/21 13:17:12;;;;;;;6.57;6.03;;;;;;;;;;5071509;28;20418;-74
2021/07/21 13:19:39;;;;;;;6.43;5.80;;;;;;;;;;5071967;28;20562;-71
2021/07/21 13:22:19;;;;;;;7.10;5.93;;;;;;;;;;5069499;28;20476;-70
2021/07/21 13:24:45;;;;;;;7.33;6.30;;;;;;;;;;5071044;28;20430;-72
2021/07/21 13:27:13;;;;;;;7.00;6.13;;;;;;;;;;5071059;28;20509;-71
2021/07/21 13:29:41;;;;;;;6.67;6.00;;;;;;;;;;5063854;28;20423;-73
2021/07/21 13:32:07;;;;;;;7.23;6.33;;;;;;;;;;5069762;28;20435;-70
2021/07/21 13:34:36;;;;;;;6.73;5.73;;;;;;;;;;5071641;28;21046;-71
2021/07/21 13:37:10;;;;;;;6.10;5.50;;;;;;;;;;5071265;28;20490;-70
2021/07/21 13:39:43;;;;;;;7.53;6.07;;;;;;;;;;5069730;28;20465;-72
2021/07/21 13:42:27;;;;;;;7.63;6.80;;;;;;;;;;5071730;28;20487;-71
2021/07/21 13:45:20;;;;;;;8.03;7.30;;;;;;;;;;5071432;28;20445;-71
2021/07/21 13:47:46;;;;;;;9.10;6.67;;;;;;;;;;5067538;28;20521;-72
2021/07/21 13:50:15;;;;;;;8.93;7.93;;;;;;;;;;5071287;28;20517;-72
2021/07/21 13:52:41;;;;;;;9.20;8.33;;;;;;;;;;5071366;28;20442;-70
2021/07/21 13:55:07;;;;;;;7.97;7.20;;;;;;;;;;5073519;28;21018;-72
2021/07/21 13:57:33;;;;;;;8.23;7.40;;;;;;;;;;5071111;28;20507;-72
2021/07/21 14:00:00;;;;;;;7.07;6.47;;;;;;;;;;5071300;28;20421;-71
2021/07/21 14:02:29;;;;;;;7.73;6.00;;;;;;;;;;5070980;28;20520;-73
2021/07/21 14:04:56;;;;;;;10.70;7.00;;;;;;;;;;5071435;28;20542;-72
2021/07/21 14:07:22;;;;;;;10.47;6.53;;;;;;;;;;5070777;28;20446;-71
2021/07/21 14:09:48;;;;;;;7.10;6.40;;;;;;;;;;5071237;28;20406;-73
2021/07/21 14:12:14;;;;;;;6.63;6.03;;;;;;;;;;5070910;28;20434;-70
2021/07/21 14:14:41;;;;;;;7.17;6.47;;;;;;;;;;5070880;28;20492;-73
2021/07/21 14:17:07;;;;;;;6.90;6.20;;;;;;;;;;5069572;28;20882;-71
2021/07/21 14:19:33;;;;;;;7.57;6.87;;;;;;;;;;5071161;28;20500;-72
2021/07/21 14:22:00;;;;;;;8.53;7.47;;;;;;;;;;5069903;28;20431;-72
2021/07/21 14:24:26;;;;;;;6.80;5.83;;;;;;;;;;5068440;28;21270;-73
2021/07/21 14:26:53;;;;;;;8.77;6.73;;;;;;;;;;5070684;28;20843;-74
2021/07/21 14:29:20;;;;;;;7.17;6.47;;;;;;;;;;5070935;28;20438;-73
2021/07/21 14:31:46;;;;;;;6.20;5.70;;;;;;;;;;5068621;28;20437;-73
2021/07/21 14:34:12;;;;;;;7.40;6.37;;;;;;;;;;5070845;28;20419;-73
2021/07/21 14:36:38;;;;;;;6.50;5.83;;;;;;;;;;5070070;28;20410;-74
2021/07/21 14:39:05;;;;;;;7.70;5.90;;;;;;;;;;5070634;28;20526;-71
2021/07/21 14:41:31;;;;;;;7.07;6.37;;;;;;;;;;5070368;28;20496;-72
2021/07/21 14:43:58;;;;;;;6.70;6.10;;;;;;;;;;5070624;28;20530;-73
2021/07/21 14:46:24;;;;;;;7.83;5.63;;;;;;;;;;5070173;28;20502;-72